Aérodrome :
LOGIN :

S'inscrire | Disclaimer

   EN    FR    IT 

 










Légende :    VFR   VFR Marginal   IFR   IFR Intensif   IFR Très Intensif
Visi : 
Plafond : 
>= 8 km
>= 3000ft
5 à 8 km
1000 à 3000 ft
1500m à 5 km
500 à 1000 ft
800 à 1500m
200 à 500 ft
< 800m
< 200 ft
Symboles :   Orages  Brouillard  Fortes neiges  Fortes précipitations  Vent > 20 kt
SIGMETs :   Divers  Orages  Givrage  Turbulence  Onde Orograph.  Cendres Volcan.







- Altitude de l'aérodrome : 112 ft
- Code IATA : SVQ


LEZL - Sevilla San Pablo

DERNIER METAR :
  • 191230Z 10006KT 040V160 CAVOK 35/14 Q1014 NOSIG

METARs EXPIRÉS :
  • 191200Z 09009KT 050V150 CAVOK 35/15 Q1014 NOSIG
  • 191130Z 08009KT 020V140 CAVOK 35/16 Q1014 NOSIG
  • 191100Z 09009G20KT 050V150 CAVOK 34/16 Q1015 NOSIG
  • 191030Z 08008KT 050V150 CAVOK 33/17 Q1015 NOSIG
  • 191000Z 09008KT 050V170 CAVOK 33/16 Q1015 NOSIG

TAF TAF LEZL
Valide du 19 à 09h jusqu'au 20 à 09h UTC


190800Z 1909/2009 09009KT CAVOK TX39/1915Z TN24/2005Z
Pas de NOTAMs connus pour ce terrain.



MET'MAP, la Météo Aéronautique d'un coup d'oeil ! - Copyright ORBIFLY Décembre 2007 - Disclaimer

ORBIFLY MET'MAP TEAM :

Programmation & Développement : Alexandra Zaïnal
Conception & Développement : Baudouin d'Aumeries
Co-Programmation & Développement : Marc-Olivier Méhu
Soutien technique & logistique : Manuel Goepfert

Contact : metmap@orbifly.com




SOURCES & CREDITS :

   NOAA